Scroll down
FLIGHT INFORMATION
British Airways

BAW9151

At Arrival Gate

EGKK
 EGLL
DATE: 2021-02-27
GATE: 
GATE DEPARTURE: 01:00
TAKEOFF: 01:11
DATE: 2021-02-27
GATE: 212R
LANDING: 01:23
GATE ARRIVAL: 01:30
FLIGHT DATA
Crew: 
Speed: 
510 kph
Altitude: 
5,003 ft
Stage Length: 
41.2 km
Block Time: 
0.5 hrs
Flight Time: 
0.2 hrs
Fuel Used: 
1,857 kg
Cleared Route: EGKK ACORN BIG EGLL
TRACK DATA
50,000 ft 1,000 kts
AIRCRAFT INFO AND CUMULATIVE STATS
Aircraft Type: 
B772
Registration: 
SELCAL: 
GKCR
MSN/LN: 
27486 / 56
Operator: 
Total Flights: 
2
Total Block Time: 
8.1 hrs
Total Flight Time: 
7.3 hrs
Total Fuel Used: 
44,106 kg
DATALINK LOG | Newest first | Current as of: 2022-10-05 22:53:56
LABEL SEQUENCE CONTENT Dn/Up
5Z321027 FEB 21 01:31:43z / FLT DECK GOOD / ACF POS GOOD / GRND SERVICES GOOD / MAINT GOOD▼ Dn
QD310901:30 19.5▼ Dn
QC240401:23▼ Dn
GA1910YOUR ASSIGNMENT IS STILL 212R▲ Up
GR1900EGLL 01:21 MAAS 00 YP/UM 00/00 WCHR/S/C 00/00/00 HI-VAL NO DIPL/VIP NO▼ Dn
2U1419EGLL 270050Z AUTO 30001KT 9999 NCD 04/01 Q1040▲ Up
GA1510REMOTE STAND 212R▲ Up
GR1459EGLL 01:20 MAAS 00 YP/UM 00/00 WCHR/S/C 00/00/00 HI-VAL NO DIPL/VIP NO▼ Dn
2S1458EGLL▼ Dn
QB115701:11▼ Dn
QA004801:00 23.7▼ Dn
5Z584727 FEB 21 00:58:19z / FLT DECK GOOD / ACF POS GOOD / GRND SERVICES GOOD / MAINT GOOD▼ Dn
2U5250EGKK 270020Z 22001KT CAVOK 01/M01 Q1040▲ Up
2S5240EGKK▼ Dn
A33739CLEARED TO EGLL VIA ACORN BIG BIG1Z. SQUAWK 5517.▲ Up
B33729EGKK EGLL BAW9151 G-VIID A ▼ Dn
A73426CLEARANCE AVAIL WITHIN 0:25 OF EDT▲ Up
B33426EGKK EGLL BAW9151 G-VIID A ▼ Dn
Q03224[LINK ACK]▲ Up
Q03224[LINK TEST]▼ Dn


AIRCRAFT HISTORY
FLIGHT DATE FLIGHT NO. ORIGIN DESTINATION CLEARED ROUTE BLOCK TIME FLIGHT TIME FUEL USED PILOT
2021-02-28BAW175EGLL KJFK EGLL CPT KENET UGNUS OKTAD DOBEM TOPRO MEDOG FOXLA ABAPO PEMOB SLANY MALOT 5320N 5330N 5340N 5250N TUDEP TOPPS ENE KJFK7.6 hrs7.1 hrs93,142 lbAnton Vind
2021-02-27BAW9151EGKK EGLL EGKK ACORN BIG EGLL0.5 hrs0.2 hrs4,094 lbAnton Vind